sensor_id;sensor_type;location;lat;lon;timestamp;temperature;humidity
728;DHT22;347;48.780;9.158;2023-09-19T00:01:28;18.70;38.10
728;DHT22;347;48.780;9.158;2023-09-19T00:03:56;18.60;37.50
728;DHT22;347;48.780;9.158;2023-09-19T00:06:22;18.60;37.80
728;DHT22;347;48.780;9.158;2023-09-19T00:08:52;18.60;37.40
728;DHT22;347;48.780;9.158;2023-09-19T00:11:18;18.60;38.00
728;DHT22;347;48.780;9.158;2023-09-19T00:13:44;18.60;37.60
728;DHT22;347;48.780;9.158;2023-09-19T00:16:15;18.60;37.50
728;DHT22;347;48.780;9.158;2023-09-19T00:18:40;18.60;37.30
728;DHT22;347;48.780;9.158;2023-09-19T00:21:06;18.70;37.70
728;DHT22;347;48.780;9.158;2023-09-19T00:23:32;18.60;37.40
728;DHT22;347;48.780;9.158;2023-09-19T00:25:59;18.60;37.80
728;DHT22;347;48.780;9.158;2023-09-19T00:28:24;18.60;37.90
728;DHT22;347;48.780;9.158;2023-09-19T00:30:50;18.60;38.40
728;DHT22;347;48.780;9.158;2023-09-19T00:33:16;18.60;38.50
728;DHT22;347;48.780;9.158;2023-09-19T00:36:01;18.60;38.60
728;DHT22;347;48.780;9.158;2023-09-19T00:38:30;18.60;38.30
728;DHT22;347;48.780;9.158;2023-09-19T00:40:57;18.60;38.00
728;DHT22;347;48.780;9.158;2023-09-19T00:43:25;18.70;38.30
728;DHT22;347;48.780;9.158;2023-09-19T00:45:52;18.70;37.90
728;DHT22;347;48.780;9.158;2023-09-19T00:48:20;18.60;37.90
728;DHT22;347;48.780;9.158;2023-09-19T00:50:46;18.60;38.40
728;DHT22;347;48.780;9.158;2023-09-19T00:53:16;18.50;39.00
728;DHT22;347;48.780;9.158;2023-09-19T00:55:44;18.50;39.00
728;DHT22;347;48.780;9.158;2023-09-19T00:58:10;18.50;39.00
728;DHT22;347;48.780;9.158;2023-09-19T01:00:37;18.50;39.00
728;DHT22;347;48.780;9.158;2023-09-19T01:03:03;18.50;39.00
728;DHT22;347;48.780;9.158;2023-09-19T01:05:30;18.40;38.90
728;DHT22;347;48.780;9.158;2023-09-19T01:07:55;18.40;39.20
728;DHT22;347;48.780;9.158;2023-09-19T01:10:21;18.40;39.30
728;DHT22;347;48.780;9.158;2023-09-19T01:15:36;18.30;39.40
728;DHT22;347;48.780;9.158;2023-09-19T01:20:57;18.30;39.80
728;DHT22;347;48.780;9.158;2023-09-19T01:23:59;18.20;40.00
728;DHT22;347;48.780;9.158;2023-09-19T01:29:38;18.30;39.90
728;DHT22;347;48.780;9.158;2023-09-19T01:32:06;18.30;39.30
728;DHT22;347;48.780;9.158;2023-09-19T01:34:48;18.40;38.90
728;DHT22;347;48.780;9.158;2023-09-19T01:37:18;18.40;38.90
728;DHT22;347;48.780;9.158;2023-09-19T01:39:59;18.40;38.00
728;DHT22;347;48.780;9.158;2023-09-19T01:45:13;18.40;37.40
728;DHT22;347;48.780;9.158;2023-09-19T01:47:49;18.50;37.40
728;DHT22;347;48.780;9.158;2023-09-19T01:50:32;18.50;36.40
728;DHT22;347;48.780;9.158;2023-09-19T01:53:04;18.50;36.60
728;DHT22;347;48.780;9.158;2023-09-19T01:55:36;18.50;36.60
728;DHT22;347;48.780;9.158;2023-09-19T02:01:00;18.50;36.70
728;DHT22;347;48.780;9.158;2023-09-19T02:03:26;18.40;36.50
728;DHT22;347;48.780;9.158;2023-09-19T02:05:52;18.40;36.40
728;DHT22;347;48.780;9.158;2023-09-19T02:08:20;18.40;36.60
728;DHT22;347;48.780;9.158;2023-09-19T02:10:49;18.50;36.50
728;DHT22;347;48.780;9.158;2023-09-19T02:13:19;18.40;36.30
728;DHT22;347;48.780;9.158;2023-09-19T02:15:46;18.50;36.60
728;DHT22;347;48.780;9.158;2023-09-19T02:18:12;18.50;36.50
728;DHT22;347;48.780;9.158;2023-09-19T02:20:41;18.40;36.30
728;DHT22;347;48.780;9.158;2023-09-19T02:23:07;18.50;36.40
728;DHT22;347;48.780;9.158;2023-09-19T02:25:33;18.50;35.90
728;DHT22;347;48.780;9.158;2023-09-19T02:27:59;18.50;36.00
728;DHT22;347;48.780;9.158;2023-09-19T02:30:26;18.50;36.30
728;DHT22;347;48.780;9.158;2023-09-19T02:32:52;18.50;36.00
728;DHT22;347;48.780;9.158;2023-09-19T02:35:18;18.40;36.20
728;DHT22;347;48.780;9.158;2023-09-19T02:37:47;18.50;36.20
728;DHT22;347;48.780;9.158;2023-09-19T02:40:12;18.40;36.10
728;DHT22;347;48.780;9.158;2023-09-19T02:42:48;18.40;36.40
728;DHT22;347;48.780;9.158;2023-09-19T02:45:18;18.30;36.40
728;DHT22;347;48.780;9.158;2023-09-19T02:47:47;18.30;36.10
728;DHT22;347;48.780;9.158;2023-09-19T02:50:13;18.30;36.50
728;DHT22;347;48.780;9.158;2023-09-19T02:52:42;18.30;36.70
728;DHT22;347;48.780;9.158;2023-09-19T02:55:16;18.40;36.40
728;DHT22;347;48.780;9.158;2023-09-19T02:57:53;18.40;36.40
728;DHT22;347;48.780;9.158;2023-09-19T03:00:22;18.50;36.10
728;DHT22;347;48.780;9.158;2023-09-19T03:02:54;18.50;35.70
728;DHT22;347;48.780;9.158;2023-09-19T03:05:21;18.50;36.00
728;DHT22;347;48.780;9.158;2023-09-19T03:07:47;18.40;35.80
728;DHT22;347;48.780;9.158;2023-09-19T03:10:20;18.40;36.00
728;DHT22;347;48.780;9.158;2023-09-19T03:12:50;18.40;36.30
728;DHT22;347;48.780;9.158;2023-09-19T03:15:16;18.40;36.10
728;DHT22;347;48.780;9.158;2023-09-19T03:17:46;18.50;36.20
728;DHT22;347;48.780;9.158;2023-09-19T03:20:13;18.40;36.10
728;DHT22;347;48.780;9.158;2023-09-19T03:22:39;18.40;36.40
728;DHT22;347;48.780;9.158;2023-09-19T03:25:06;18.40;36.80
728;DHT22;347;48.780;9.158;2023-09-19T03:27:34;18.30;36.80
728;DHT22;347;48.780;9.158;2023-09-19T03:30:00;18.30;37.10
728;DHT22;347;48.780;9.158;2023-09-19T03:32:25;18.30;37.40
728;DHT22;347;48.780;9.158;2023-09-19T03:34:55;18.30;37.20
728;DHT22;347;48.780;9.158;2023-09-19T03:37:20;18.30;37.40
728;DHT22;347;48.780;9.158;2023-09-19T03:39:46;18.20;38.20
728;DHT22;347;48.780;9.158;2023-09-19T03:42:11;18.20;38.00
728;DHT22;347;48.780;9.158;2023-09-19T03:44:37;18.30;37.60
728;DHT22;347;48.780;9.158;2023-09-19T03:47:03;18.30;37.60
728;DHT22;347;48.780;9.158;2023-09-19T03:49:30;18.40;37.20
728;DHT22;347;48.780;9.158;2023-09-19T03:51:56;18.40;37.10
728;DHT22;347;48.780;9.158;2023-09-19T03:54:21;18.30;37.30
728;DHT22;347;48.780;9.158;2023-09-19T03:56:47;18.30;37.40
728;DHT22;347;48.780;9.158;2023-09-19T03:59:12;18.40;37.50
728;DHT22;347;48.780;9.158;2023-09-19T04:01:39;18.30;37.20
728;DHT22;347;48.780;9.158;2023-09-19T04:04:06;18.40;37.20
728;DHT22;347;48.780;9.158;2023-09-19T04:06:35;18.40;37.30
728;DHT22;347;48.780;9.158;2023-09-19T04:09:03;18.50;37.00
728;DHT22;347;48.780;9.158;2023-09-19T04:11:30;18.60;36.80
728;DHT22;347;48.780;9.158;2023-09-19T04:13:56;18.60;36.30
728;DHT22;347;48.780;9.158;2023-09-19T04:16:22;18.80;36.00
728;DHT22;347;48.780;9.158;2023-09-19T04:18:47;18.90;35.40
728;DHT22;347;48.780;9.158;2023-09-19T04:21:13;19.00;34.30
728;DHT22;347;48.780;9.158;2023-09-19T04:23:38;19.10;34.40
728;DHT22;347;48.780;9.158;2023-09-19T04:26:04;19.20;34.40
728;DHT22;347;48.780;9.158;2023-09-19T04:28:30;19.30;33.80
728;DHT22;347;48.780;9.158;2023-09-19T04:30:56;19.30;33.40
728;DHT22;347;48.780;9.158;2023-09-19T04:33:23;19.00;34.20
728;DHT22;347;48.780;9.158;2023-09-19T04:35:51;18.90;34.80
728;DHT22;347;48.780;9.158;2023-09-19T04:38:18;18.90;35.50
728;DHT22;347;48.780;9.158;2023-09-19T04:40:45;18.80;35.60
728;DHT22;347;48.780;9.158;2023-09-19T04:43:10;18.70;36.20
728;DHT22;347;48.780;9.158;2023-09-19T04:45:38;18.60;37.20
728;DHT22;347;48.780;9.158;2023-09-19T04:48:04;18.50;37.90
728;DHT22;347;48.780;9.158;2023-09-19T04:50:32;18.40;38.20
728;DHT22;347;48.780;9.158;2023-09-19T04:52:59;18.40;38.80
728;DHT22;347;48.780;9.158;2023-09-19T04:55:26;18.40;39.20
728;DHT22;347;48.780;9.158;2023-09-19T04:57:52;18.30;40.50
728;DHT22;347;48.780;9.158;2023-09-19T05:00:22;18.30;42.00
728;DHT22;347;48.780;9.158;2023-09-19T05:02:55;18.40;43.20
728;DHT22;347;48.780;9.158;2023-09-19T05:05:27;18.30;44.80
728;DHT22;347;48.780;9.158;2023-09-19T05:07:54;18.40;45.20
728;DHT22;347;48.780;9.158;2023-09-19T05:10:47;18.40;45.50
728;DHT22;347;48.780;9.158;2023-09-19T05:13:34;18.20;46.90
728;DHT22;347;48.780;9.158;2023-09-19T05:16:00;18.20;46.50
728;DHT22;347;48.780;9.158;2023-09-19T05:18:28;18.10;47.40
728;DHT22;347;48.780;9.158;2023-09-19T05:20:54;18.00;46.50
728;DHT22;347;48.780;9.158;2023-09-19T05:23:20;17.90;47.50
728;DHT22;347;48.780;9.158;2023-09-19T05:25:46;17.90;47.90
728;DHT22;347;48.780;9.158;2023-09-19T05:28:12;17.90;48.60
728;DHT22;347;48.780;9.158;2023-09-19T05:30:40;17.90;48.60
728;DHT22;347;48.780;9.158;2023-09-19T05:33:06;17.90;49.40
728;DHT22;347;48.780;9.158;2023-09-19T05:35:33;17.90;48.50
728;DHT22;347;48.780;9.158;2023-09-19T05:37:59;17.90;48.20
728;DHT22;347;48.780;9.158;2023-09-19T05:40:25;18.00;48.10
728;DHT22;347;48.780;9.158;2023-09-19T05:42:51;18.20;46.70
728;DHT22;347;48.780;9.158;2023-09-19T05:45:17;18.30;46.50
728;DHT22;347;48.780;9.158;2023-09-19T05:47:48;18.40;46.10
728;DHT22;347;48.780;9.158;2023-09-19T05:50:14;18.40;43.40
728;DHT22;347;48.780;9.158;2023-09-19T05:52:42;18.40;43.10
728;DHT22;347;48.780;9.158;2023-09-19T05:55:08;18.40;44.00
728;DHT22;347;48.780;9.158;2023-09-19T05:57:34;18.40;44.90
728;DHT22;347;48.780;9.158;2023-09-19T06:00:01;18.40;45.30
728;DHT22;347;48.780;9.158;2023-09-19T06:02:27;18.40;46.20
728;DHT22;347;48.780;9.158;2023-09-19T06:04:54;18.40;47.70
728;DHT22;347;48.780;9.158;2023-09-19T06:07:21;18.30;46.10
728;DHT22;347;48.780;9.158;2023-09-19T06:09:51;18.10;45.90
728;DHT22;347;48.780;9.158;2023-09-19T06:12:19;18.00;48.40
728;DHT22;347;48.780;9.158;2023-09-19T06:14:44;18.00;48.00
728;DHT22;347;48.780;9.158;2023-09-19T06:17:10;17.90;48.90
728;DHT22;347;48.780;9.158;2023-09-19T06:19:39;17.80;49.00
728;DHT22;347;48.780;9.158;2023-09-19T06:22:04;18.00;48.60
728;DHT22;347;48.780;9.158;2023-09-19T06:24:30;18.00;46.20
728;DHT22;347;48.780;9.158;2023-09-19T06:26:56;18.10;45.80
728;DHT22;347;48.780;9.158;2023-09-19T06:29:21;18.20;44.30
728;DHT22;347;48.780;9.158;2023-09-19T06:31:48;18.10;43.90
728;DHT22;347;48.780;9.158;2023-09-19T06:34:14;17.80;44.50
728;DHT22;347;48.780;9.158;2023-09-19T06:36:41;17.80;44.20
728;DHT22;347;48.780;9.158;2023-09-19T06:39:06;17.80;44.60
728;DHT22;347;48.780;9.158;2023-09-19T06:41:32;17.70;44.00
728;DHT22;347;48.780;9.158;2023-09-19T06:43:57;17.70;44.90
728;DHT22;347;48.780;9.158;2023-09-19T06:46:23;17.60;44.50
728;DHT22;347;48.780;9.158;2023-09-19T06:48:50;17.70;44.80
728;DHT22;347;48.780;9.158;2023-09-19T06:51:18;17.80;44.80
728;DHT22;347;48.780;9.158;2023-09-19T06:53:43;17.70;45.30
728;DHT22;347;48.780;9.158;2023-09-19T06:56:09;17.60;45.50
728;DHT22;347;48.780;9.158;2023-09-19T06:58:35;17.70;45.60
728;DHT22;347;48.780;9.158;2023-09-19T07:01:02;17.70;43.20
728;DHT22;347;48.780;9.158;2023-09-19T07:03:28;17.70;42.40
728;DHT22;347;48.780;9.158;2023-09-19T07:05:54;17.80;43.40
728;DHT22;347;48.780;9.158;2023-09-19T07:08:21;17.90;43.50
728;DHT22;347;48.780;9.158;2023-09-19T07:10:46;17.90;42.90
728;DHT22;347;48.780;9.158;2023-09-19T07:13:14;18.00;43.90
728;DHT22;347;48.780;9.158;2023-09-19T07:15:42;18.20;42.90
728;DHT22;347;48.780;9.158;2023-09-19T07:18:15;18.20;42.10
728;DHT22;347;48.780;9.158;2023-09-19T07:20:42;18.30;40.60
728;DHT22;347;48.780;9.158;2023-09-19T07:23:11;18.10;41.20
728;DHT22;347;48.780;9.158;2023-09-19T07:25:39;18.00;41.60
728;DHT22;347;48.780;9.158;2023-09-19T07:28:05;18.00;41.10
728;DHT22;347;48.780;9.158;2023-09-19T07:30:31;17.90;41.00
728;DHT22;347;48.780;9.158;2023-09-19T07:32:57;17.90;41.40
728;DHT22;347;48.780;9.158;2023-09-19T07:35:22;17.90;41.40
728;DHT22;347;48.780;9.158;2023-09-19T07:37:49;17.90;42.20
728;DHT22;347;48.780;9.158;2023-09-19T07:40:15;17.80;42.00
728;DHT22;347;48.780;9.158;2023-09-19T07:42:41;17.80;42.50
728;DHT22;347;48.780;9.158;2023-09-19T07:45:10;17.90;42.20
728;DHT22;347;48.780;9.158;2023-09-19T07:47:49;18.00;42.50
728;DHT22;347;48.780;9.158;2023-09-19T07:50:19;18.10;42.70
728;DHT22;347;48.780;9.158;2023-09-19T07:52:46;18.10;40.50
728;DHT22;347;48.780;9.158;2023-09-19T07:55:12;18.10;41.00
728;DHT22;347;48.780;9.158;2023-09-19T07:57:41;18.20;40.30
728;DHT22;347;48.780;9.158;2023-09-19T08:00:08;18.20;40.10
728;DHT22;347;48.780;9.158;2023-09-19T08:02:36;18.20;39.10
728;DHT22;347;48.780;9.158;2023-09-19T08:05:04;18.20;40.60
728;DHT22;347;48.780;9.158;2023-09-19T08:07:40;18.20;38.90
728;DHT22;347;48.780;9.158;2023-09-19T08:10:07;18.20;40.50
728;DHT22;347;48.780;9.158;2023-09-19T08:12:33;18.30;38.80
728;DHT22;347;48.780;9.158;2023-09-19T08:15:02;18.40;39.40
728;DHT22;347;48.780;9.158;2023-09-19T08:17:28;18.50;39.70
728;DHT22;347;48.780;9.158;2023-09-19T08:19:53;18.40;37.60
728;DHT22;347;48.780;9.158;2023-09-19T08:22:22;18.60;39.10
728;DHT22;347;48.780;9.158;2023-09-19T08:24:49;18.60;39.10
728;DHT22;347;48.780;9.158;2023-09-19T08:27:14;18.80;39.40
728;DHT22;347;48.780;9.158;2023-09-19T08:29:40;18.80;37.50
728;DHT22;347;48.780;9.158;2023-09-19T08:32:07;18.80;36.90
728;DHT22;347;48.780;9.158;2023-09-19T08:34:33;18.80;37.10
728;DHT22;347;48.780;9.158;2023-09-19T08:36:59;18.80;36.80
728;DHT22;347;48.780;9.158;2023-09-19T08:39:25;18.90;37.80
728;DHT22;347;48.780;9.158;2023-09-19T08:42:01;18.90;35.90
728;DHT22;347;48.780;9.158;2023-09-19T08:44:27;19.00;36.90
728;DHT22;347;48.780;9.158;2023-09-19T08:47:00;19.10;36.20
728;DHT22;347;48.780;9.158;2023-09-19T08:49:57;19.10;32.20
728;DHT22;347;48.780;9.158;2023-09-19T08:52:29;19.20;31.60
728;DHT22;347;48.780;9.158;2023-09-19T08:54:59;19.40;31.90
728;DHT22;347;48.780;9.158;2023-09-19T08:57:33;19.50;31.20
728;DHT22;347;48.780;9.158;2023-09-19T09:00:04;19.60;30.10
728;DHT22;347;48.780;9.158;2023-09-19T09:02:38;19.70;29.80
728;DHT22;347;48.780;9.158;2023-09-19T09:05:10;19.90;29.90
728;DHT22;347;48.780;9.158;2023-09-19T09:07:37;20.00;29.00
728;DHT22;347;48.780;9.158;2023-09-19T09:10:04;20.10;28.00
728;DHT22;347;48.780;9.158;2023-09-19T09:12:30;20.20;28.60
728;DHT22;347;48.780;9.158;2023-09-19T09:14:56;20.30;28.40
728;DHT22;347;48.780;9.158;2023-09-19T09:17:26;20.50;26.90
728;DHT22;347;48.780;9.158;2023-09-19T09:19:55;20.50;26.00
728;DHT22;347;48.780;9.158;2023-09-19T09:22:21;20.50;24.90
728;DHT22;347;48.780;9.158;2023-09-19T09:24:57;20.50;24.40
728;DHT22;347;48.780;9.158;2023-09-19T09:27:24;20.70;23.40
728;DHT22;347;48.780;9.158;2023-09-19T09:29:51;20.60;22.10
728;DHT22;347;48.780;9.158;2023-09-19T09:32:30;20.60;22.40
728;DHT22;347;48.780;9.158;2023-09-19T09:35:00;20.70;20.70
728;DHT22;347;48.780;9.158;2023-09-19T09:37:26;20.70;20.00
728;DHT22;347;48.780;9.158;2023-09-19T09:39:57;20.70;19.90
728;DHT22;347;48.780;9.158;2023-09-19T09:42:35;20.80;19.90
728;DHT22;347;48.780;9.158;2023-09-19T09:47:47;21.10;21.10
728;DHT22;347;48.780;9.158;2023-09-19T09:50:28;21.00;18.90
728;DHT22;347;48.780;9.158;2023-09-19T09:52:56;21.00;19.60
728;DHT22;347;48.780;9.158;2023-09-19T09:58:22;21.10;18.00
728;DHT22;347;48.780;9.158;2023-09-19T10:00:57;21.00;18.30
728;DHT22;347;48.780;9.158;2023-09-19T10:03:35;21.00;18.10
728;DHT22;347;48.780;9.158;2023-09-19T10:06:07;20.90;18.40
728;DHT22;347;48.780;9.158;2023-09-19T10:09:19;21.10;18.20
728;DHT22;347;48.780;9.158;2023-09-19T10:12:03;21.10;18.90
728;DHT22;347;48.780;9.158;2023-09-19T10:14:35;21.20;19.20
728;DHT22;347;48.780;9.158;2023-09-19T10:17:02;21.10;18.20
728;DHT22;347;48.780;9.158;2023-09-19T10:22:00;21.10;16.20
728;DHT22;347;48.780;9.158;2023-09-19T10:24:28;20.90;16.50
728;DHT22;347;48.780;9.158;2023-09-19T10:26:54;20.90;17.20
728;DHT22;347;48.780;9.158;2023-09-19T10:29:21;20.90;17.80
728;DHT22;347;48.780;9.158;2023-09-19T10:31:47;21.00;18.00
728;DHT22;347;48.780;9.158;2023-09-19T10:34:17;20.90;18.00
728;DHT22;347;48.780;9.158;2023-09-19T10:36:46;21.10;18.10
728;DHT22;347;48.780;9.158;2023-09-19T10:39:16;21.10;17.80
728;DHT22;347;48.780;9.158;2023-09-19T10:41:50;21.00;18.10
728;DHT22;347;48.780;9.158;2023-09-19T10:44:23;21.00;18.80
728;DHT22;347;48.780;9.158;2023-09-19T10:46:51;21.20;18.30
728;DHT22;347;48.780;9.158;2023-09-19T10:49:18;21.20;17.80
728;DHT22;347;48.780;9.158;2023-09-19T10:51:45;21.20;17.40
728;DHT22;347;48.780;9.158;2023-09-19T10:54:17;21.40;17.70
728;DHT22;347;48.780;9.158;2023-09-19T10:56:48;21.40;17.10
728;DHT22;347;48.780;9.158;2023-09-19T10:59:17;21.50;15.50
728;DHT22;347;48.780;9.158;2023-09-19T11:01:52;21.40;15.80
728;DHT22;347;48.780;9.158;2023-09-19T11:07:09;21.20;16.20
728;DHT22;347;48.780;9.158;2023-09-19T11:09:53;21.10;16.60
728;DHT22;347;48.780;9.158;2023-09-19T11:15:01;21.00;17.50
728;DHT22;347;48.780;9.158;2023-09-19T11:17:34;21.00;17.00
728;DHT22;347;48.780;9.158;2023-09-19T11:30:52;21.60;15.80
728;DHT22;347;48.780;9.158;2023-09-19T11:33:33;21.50;14.50
728;DHT22;347;48.780;9.158;2023-09-19T11:43:46;21.90;12.60
728;DHT22;347;48.780;9.158;2023-09-19T11:46:12;21.80;12.40
728;DHT22;347;48.780;9.158;2023-09-19T11:48:39;21.80;12.20
728;DHT22;347;48.780;9.158;2023-09-19T11:51:23;21.80;12.60
728;DHT22;347;48.780;9.158;2023-09-19T11:53:56;21.90;12.80
728;DHT22;347;48.780;9.158;2023-09-19T11:56:23;21.90;12.90
728;DHT22;347;48.780;9.158;2023-09-19T11:58:51;22.00;12.90
728;DHT22;347;48.780;9.158;2023-09-19T12:01:30;22.00;13.20
728;DHT22;347;48.780;9.158;2023-09-19T12:03:58;22.00;13.00
728;DHT22;347;48.780;9.158;2023-09-19T12:06:25;22.00;12.10
728;DHT22;347;48.780;9.158;2023-09-19T12:08:51;22.00;12.00
728;DHT22;347;48.780;9.158;2023-09-19T12:11:20;22.10;12.60
728;DHT22;347;48.780;9.158;2023-09-19T12:13:47;22.10;12.60
728;DHT22;347;48.780;9.158;2023-09-19T12:16:20;22.20;12.30
728;DHT22;347;48.780;9.158;2023-09-19T12:18:50;22.20;12.50
728;DHT22;347;48.780;9.158;2023-09-19T12:21:26;22.30;12.80
728;DHT22;347;48.780;9.158;2023-09-19T12:26:30;22.40;12.30
728;DHT22;347;48.780;9.158;2023-09-19T12:29:03;22.30;12.40
728;DHT22;347;48.780;9.158;2023-09-19T12:31:30;22.30;12.50
728;DHT22;347;48.780;9.158;2023-09-19T12:34:01;22.10;12.80
728;DHT22;347;48.780;9.158;2023-09-19T12:36:27;22.10;12.40
728;DHT22;347;48.780;9.158;2023-09-19T12:38:56;22.10;12.80
728;DHT22;347;48.780;9.158;2023-09-19T12:41:25;22.20;12.90
728;DHT22;347;48.780;9.158;2023-09-19T12:43:52;22.40;12.60
728;DHT22;347;48.780;9.158;2023-09-19T12:46:20;22.50;12.50
728;DHT22;347;48.780;9.158;2023-09-19T12:49:16;22.60;11.50
728;DHT22;347;48.780;9.158;2023-09-19T12:51:43;22.70;11.30
728;DHT22;347;48.780;9.158;2023-09-19T12:54:09;22.70;11.30
728;DHT22;347;48.780;9.158;2023-09-19T12:56:43;22.70;11.40
728;DHT22;347;48.780;9.158;2023-09-19T12:59:14;22.60;11.40
728;DHT22;347;48.780;9.158;2023-09-19T13:01:41;22.70;12.20
728;DHT22;347;48.780;9.158;2023-09-19T13:04:20;22.80;11.70
728;DHT22;347;48.780;9.158;2023-09-19T13:06:52;22.80;11.30
728;DHT22;347;48.780;9.158;2023-09-19T13:09:19;22.80;11.70
728;DHT22;347;48.780;9.158;2023-09-19T13:11:46;22.90;11.50
728;DHT22;347;48.780;9.158;2023-09-19T13:14:14;22.90;11.20
728;DHT22;347;48.780;9.158;2023-09-19T13:17:04;22.90;11.30
728;DHT22;347;48.780;9.158;2023-09-19T13:19:35;22.80;11.30
728;DHT22;347;48.780;9.158;2023-09-19T13:22:01;22.80;11.80
728;DHT22;347;48.780;9.158;2023-09-19T13:24:27;22.80;11.60
728;DHT22;347;48.780;9.158;2023-09-19T13:26:54;22.80;11.60
728;DHT22;347;48.780;9.158;2023-09-19T13:29:19;22.70;11.30
728;DHT22;347;48.780;9.158;2023-09-19T13:31:49;22.70;12.40
728;DHT22;347;48.780;9.158;2023-09-19T13:34:15;22.80;12.00
728;DHT22;347;48.780;9.158;2023-09-19T13:36:42;22.80;11.50
728;DHT22;347;48.780;9.158;2023-09-19T13:39:08;22.90;11.10
728;DHT22;347;48.780;9.158;2023-09-19T13:41:41;22.80;12.20
728;DHT22;347;48.780;9.158;2023-09-19T13:44:08;22.80;12.30
728;DHT22;347;48.780;9.158;2023-09-19T13:46:36;22.80;11.60
728;DHT22;347;48.780;9.158;2023-09-19T13:49:02;22.80;11.90
728;DHT22;347;48.780;9.158;2023-09-19T13:51:30;22.80;11.40
728;DHT22;347;48.780;9.158;2023-09-19T13:53:56;22.70;11.50
728;DHT22;347;48.780;9.158;2023-09-19T13:56:21;22.70;11.70
728;DHT22;347;48.780;9.158;2023-09-19T13:58:47;22.80;11.10
728;DHT22;347;48.780;9.158;2023-09-19T14:01:13;22.80;11.30
728;DHT22;347;48.780;9.158;2023-09-19T14:03:39;22.80;11.00
728;DHT22;347;48.780;9.158;2023-09-19T14:06:05;22.70;11.30
728;DHT22;347;48.780;9.158;2023-09-19T14:08:31;22.80;10.80
728;DHT22;347;48.780;9.158;2023-09-19T14:11:01;22.80;11.00
728;DHT22;347;48.780;9.158;2023-09-19T14:13:30;22.80;10.10
728;DHT22;347;48.780;9.158;2023-09-19T14:15:56;22.80;10.70
728;DHT22;347;48.780;9.158;2023-09-19T14:18:21;22.90;10.80
728;DHT22;347;48.780;9.158;2023-09-19T14:20:47;22.90;11.00
728;DHT22;347;48.780;9.158;2023-09-19T14:23:13;22.80;11.70
728;DHT22;347;48.780;9.158;2023-09-19T14:25:38;22.80;11.00
728;DHT22;347;48.780;9.158;2023-09-19T14:28:05;22.70;10.70
728;DHT22;347;48.780;9.158;2023-09-19T14:30:32;22.70;10.70
728;DHT22;347;48.780;9.158;2023-09-19T14:32:57;22.80;10.30
728;DHT22;347;48.780;9.158;2023-09-19T14:35:23;22.80;11.10
728;DHT22;347;48.780;9.158;2023-09-19T14:37:49;22.80;10.60
728;DHT22;347;48.780;9.158;2023-09-19T14:40:15;22.90;11.50
728;DHT22;347;48.780;9.158;2023-09-19T14:42:42;22.80;11.10
728;DHT22;347;48.780;9.158;2023-09-19T14:45:09;22.70;11.60
728;DHT22;347;48.780;9.158;2023-09-19T14:47:35;22.70;10.20
728;DHT22;347;48.780;9.158;2023-09-19T14:50:02;22.60;10.10
728;DHT22;347;48.780;9.158;2023-09-19T14:52:32;22.70;10.00
728;DHT22;347;48.780;9.158;2023-09-19T14:54:58;22.80;10.30
728;DHT22;347;48.780;9.158;2023-09-19T14:57:23;22.80;9.70
728;DHT22;347;48.780;9.158;2023-09-19T14:59:50;22.80;10.20
728;DHT22;347;48.780;9.158;2023-09-19T15:02:16;22.80;10.60
728;DHT22;347;48.780;9.158;2023-09-19T15:04:42;22.80;10.30
728;DHT22;347;48.780;9.158;2023-09-19T15:07:13;22.70;10.50
728;DHT22;347;48.780;9.158;2023-09-19T15:09:41;22.70;10.10
728;DHT22;347;48.780;9.158;2023-09-19T15:12:06;22.70;9.80
728;DHT22;347;48.780;9.158;2023-09-19T15:14:32;22.70;9.70
728;DHT22;347;48.780;9.158;2023-09-19T15:16:58;22.80;9.50
728;DHT22;347;48.780;9.158;2023-09-19T15:19:23;22.80;9.70
728;DHT22;347;48.780;9.158;2023-09-19T15:21:49;22.80;9.60
728;DHT22;347;48.780;9.158;2023-09-19T15:24:14;22.70;9.90
728;DHT22;347;48.780;9.158;2023-09-19T15:26:41;22.60;10.10
728;DHT22;347;48.780;9.158;2023-09-19T15:29:09;22.60;9.60
728;DHT22;347;48.780;9.158;2023-09-19T15:31:35;22.50;9.90
728;DHT22;347;48.780;9.158;2023-09-19T15:34:04;22.60;9.90
728;DHT22;347;48.780;9.158;2023-09-19T15:36:31;22.60;10.20
728;DHT22;347;48.780;9.158;2023-09-19T15:41:36;22.70;10.50
728;DHT22;347;48.780;9.158;2023-09-19T15:44:03;22.60;9.90
728;DHT22;347;48.780;9.158;2023-09-19T15:46:31;22.50;10.40
728;DHT22;347;48.780;9.158;2023-09-19T15:48:58;22.60;10.40
728;DHT22;347;48.780;9.158;2023-09-19T15:51:25;22.60;10.40
728;DHT22;347;48.780;9.158;2023-09-19T15:53:53;22.50;10.90
728;DHT22;347;48.780;9.158;2023-09-19T15:56:20;22.60;10.40
728;DHT22;347;48.780;9.158;2023-09-19T15:58:50;22.60;10.90
728;DHT22;347;48.780;9.158;2023-09-19T16:01:17;22.50;10.90
728;DHT22;347;48.780;9.158;2023-09-19T16:03:50;22.50;11.20
728;DHT22;347;48.780;9.158;2023-09-19T16:06:21;22.50;10.50
728;DHT22;347;48.780;9.158;2023-09-19T16:08:49;22.50;10.70
728;DHT22;347;48.780;9.158;2023-09-19T16:11:16;22.40;10.90
728;DHT22;347;48.780;9.158;2023-09-19T16:13:42;22.50;11.40
728;DHT22;347;48.780;9.158;2023-09-19T16:16:09;22.40;10.60
728;DHT22;347;48.780;9.158;2023-09-19T16:18:54;22.40;10.80
728;DHT22;347;48.780;9.158;2023-09-19T16:21:23;22.40;10.90
728;DHT22;347;48.780;9.158;2023-09-19T16:23:50;22.40;10.90
728;DHT22;347;48.780;9.158;2023-09-19T16:26:16;22.40;11.10
728;DHT22;347;48.780;9.158;2023-09-19T16:28:45;22.30;11.30
728;DHT22;347;48.780;9.158;2023-09-19T16:31:11;22.30;11.30
728;DHT22;347;48.780;9.158;2023-09-19T16:33:38;22.30;11.30
728;DHT22;347;48.780;9.158;2023-09-19T16:36:08;22.30;11.70
728;DHT22;347;48.780;9.158;2023-09-19T16:38:35;22.30;11.70
728;DHT22;347;48.780;9.158;2023-09-19T16:41:00;22.30;11.90
728;DHT22;347;48.780;9.158;2023-09-19T16:43:27;22.30;12.10
728;DHT22;347;48.780;9.158;2023-09-19T16:46:04;22.30;12.40
728;DHT22;347;48.780;9.158;2023-09-19T16:48:30;22.20;11.90
728;DHT22;347;48.780;9.158;2023-09-19T16:51:04;22.20;12.30
728;DHT22;347;48.780;9.158;2023-09-19T16:53:30;22.20;12.20
728;DHT22;347;48.780;9.158;2023-09-19T16:56:01;22.20;12.30
728;DHT22;347;48.780;9.158;2023-09-19T16:58:28;22.10;12.40
728;DHT22;347;48.780;9.158;2023-09-19T17:00:55;22.10;12.60
728;DHT22;347;48.780;9.158;2023-09-19T17:03:21;22.20;13.10
728;DHT22;347;48.780;9.158;2023-09-19T17:05:48;22.20;13.30
728;DHT22;347;48.780;9.158;2023-09-19T17:08:14;22.10;13.20
728;DHT22;347;48.780;9.158;2023-09-19T17:10:39;22.00;12.70
728;DHT22;347;48.780;9.158;2023-09-19T17:13:09;22.00;13.30
728;DHT22;347;48.780;9.158;2023-09-19T17:15:36;22.00;13.60
728;DHT22;347;48.780;9.158;2023-09-19T17:18:02;22.00;13.70
728;DHT22;347;48.780;9.158;2023-09-19T17:20:29;22.00;14.20
728;DHT22;347;48.780;9.158;2023-09-19T17:22:55;21.90;14.10
728;DHT22;347;48.780;9.158;2023-09-19T17:25:21;21.90;14.10
728;DHT22;347;48.780;9.158;2023-09-19T17:27:48;21.90;13.90
728;DHT22;347;48.780;9.158;2023-09-19T17:30:14;21.90;14.40
728;DHT22;347;48.780;9.158;2023-09-19T17:32:44;21.90;14.00
728;DHT22;347;48.780;9.158;2023-09-19T17:35:11;21.90;14.50